sensor_id;sensor_type;location;lat;lon;timestamp;temperature;humidity
22450;DHT22;11392;57.390;-2.468;2023-05-20T00:06:03;10.70;99.90
22450;DHT22;11392;57.390;-2.468;2023-05-20T00:08:30;10.70;99.90
22450;DHT22;11392;57.390;-2.468;2023-05-20T00:10:57;10.70;99.90
22450;DHT22;11392;57.390;-2.468;2023-05-20T00:13:24;10.70;99.90
22450;DHT22;11392;57.390;-2.468;2023-05-20T00:15:51;10.70;99.90
22450;DHT22;11392;57.390;-2.468;2023-05-20T00:18:19;10.70;99.90
22450;DHT22;11392;57.390;-2.468;2023-05-20T00:23:28;10.70;99.90
22450;DHT22;11392;57.390;-2.468;2023-05-20T00:28:44;10.70;99.90
22450;DHT22;11392;57.390;-2.468;2023-05-20T00:31:11;10.70;99.90
22450;DHT22;11392;57.390;-2.468;2023-05-20T00:33:39;10.70;99.90
22450;DHT22;11392;57.390;-2.468;2023-05-20T00:36:07;10.70;99.90
22450;DHT22;11392;57.390;-2.468;2023-05-20T00:44:40;10.70;99.90
22450;DHT22;11392;57.390;-2.468;2023-05-20T00:47:08;10.70;99.90
22450;DHT22;11392;57.390;-2.468;2023-05-20T00:49:35;10.60;99.90
22450;DHT22;11392;57.390;-2.468;2023-05-20T00:54:45;10.70;99.90
22450;DHT22;11392;57.390;-2.468;2023-05-20T01:00:02;10.70;99.90
22450;DHT22;11392;57.390;-2.468;2023-05-20T01:13:15;10.70;99.90
22450;DHT22;11392;57.390;-2.468;2023-05-20T01:23:42;10.50;99.90
22450;DHT22;11392;57.390;-2.468;2023-05-20T01:37:29;10.60;99.90
22450;DHT22;11392;57.390;-2.468;2023-05-20T01:42:46;10.70;99.90
22450;DHT22;11392;57.390;-2.468;2023-05-20T01:45:19;10.60;99.90
22450;DHT22;11392;57.390;-2.468;2023-05-20T01:47:47;10.70;99.90
22450;DHT22;11392;57.390;-2.468;2023-05-20T01:50:16;10.60;99.90
22450;DHT22;11392;57.390;-2.468;2023-05-20T01:58:27;10.70;99.90
22450;DHT22;11392;57.390;-2.468;2023-05-20T02:00:55;10.70;99.90
22450;DHT22;11392;57.390;-2.468;2023-05-20T02:03:22;10.60;99.90
22450;DHT22;11392;57.390;-2.468;2023-05-20T02:05:49;10.70;99.90
22450;DHT22;11392;57.390;-2.468;2023-05-20T02:10:58;10.60;99.90
22450;DHT22;11392;57.390;-2.468;2023-05-20T02:16:01;10.70;99.90
22450;DHT22;11392;57.390;-2.468;2023-05-20T02:18:28;10.70;99.90
22450;DHT22;11392;57.390;-2.468;2023-05-20T02:20:55;10.60;99.90
22450;DHT22;11392;57.390;-2.468;2023-05-20T02:23:22;10.70;99.90
22450;DHT22;11392;57.390;-2.468;2023-05-20T02:28:24;10.60;99.90
22450;DHT22;11392;57.390;-2.468;2023-05-20T02:30:52;10.50;99.90
22450;DHT22;11392;57.390;-2.468;2023-05-20T02:55:59;10.60;99.90
22450;DHT22;11392;57.390;-2.468;2023-05-20T02:58:27;10.50;99.90
22450;DHT22;11392;57.390;-2.468;2023-05-20T03:00:55;10.50;99.90
22450;DHT22;11392;57.390;-2.468;2023-05-20T03:14:12;10.50;99.90
22450;DHT22;11392;57.390;-2.468;2023-05-20T04:38:54;10.50;99.90
22450;DHT22;11392;57.390;-2.468;2023-05-20T04:41:21;10.50;99.90
22450;DHT22;11392;57.390;-2.468;2023-05-20T05:15:39;10.90;99.90
22450;DHT22;11392;57.390;-2.468;2023-05-20T05:18:06;10.90;99.90
22450;DHT22;11392;57.390;-2.468;2023-05-20T05:20:33;10.90;99.90
22450;DHT22;11392;57.390;-2.468;2023-05-20T05:23:01;11.00;99.90
22450;DHT22;11392;57.390;-2.468;2023-05-20T05:33:25;11.00;99.90
22450;DHT22;11392;57.390;-2.468;2023-05-20T05:35:52;11.00;99.90
22450;DHT22;11392;57.390;-2.468;2023-05-20T05:38:19;11.10;99.90
22450;DHT22;11392;57.390;-2.468;2023-05-20T05:40:46;11.00;99.90
22450;DHT22;11392;57.390;-2.468;2023-05-20T05:43:13;11.00;99.90
22450;DHT22;11392;57.390;-2.468;2023-05-20T05:45:40;11.10;99.90
22450;DHT22;11392;57.390;-2.468;2023-05-20T05:48:08;11.20;99.90
22450;DHT22;11392;57.390;-2.468;2023-05-20T05:50:36;11.20;99.90
22450;DHT22;11392;57.390;-2.468;2023-05-20T05:53:03;11.30;99.90
22450;DHT22;11392;57.390;-2.468;2023-05-20T06:00:42;11.20;99.90
22450;DHT22;11392;57.390;-2.468;2023-05-20T06:13:46;11.40;99.90
22450;DHT22;11392;57.390;-2.468;2023-05-20T06:16:13;11.40;99.90
22450;DHT22;11392;57.390;-2.468;2023-05-20T06:29:35;11.50;99.90
22450;DHT22;11392;57.390;-2.468;2023-05-20T06:32:02;11.50;99.90
22450;DHT22;11392;57.390;-2.468;2023-05-20T06:45:50;11.40;99.90
22450;DHT22;11392;57.390;-2.468;2023-05-20T06:48:17;11.40;99.90
22450;DHT22;11392;57.390;-2.468;2023-05-20T06:50:44;11.40;99.90
22450;DHT22;11392;57.390;-2.468;2023-05-20T06:53:11;11.40;99.90
22450;DHT22;11392;57.390;-2.468;2023-05-20T07:00:53;11.40;99.90
22450;DHT22;11392;57.390;-2.468;2023-05-20T07:03:21;11.40;99.90
22450;DHT22;11392;57.390;-2.468;2023-05-20T07:05:49;11.40;99.90
22450;DHT22;11392;57.390;-2.468;2023-05-20T07:08:17;11.40;99.90
22450;DHT22;11392;57.390;-2.468;2023-05-20T07:10:44;11.40;99.90
22450;DHT22;11392;57.390;-2.468;2023-05-20T07:13:12;11.40;99.90
22450;DHT22;11392;57.390;-2.468;2023-05-20T07:15:39;11.40;99.90
22450;DHT22;11392;57.390;-2.468;2023-05-20T07:18:06;11.40;99.90
22450;DHT22;11392;57.390;-2.468;2023-05-20T07:20:33;11.40;99.90
22450;DHT22;11392;57.390;-2.468;2023-05-20T07:23:01;11.40;99.90
22450;DHT22;11392;57.390;-2.468;2023-05-20T07:25:29;11.40;99.90
22450;DHT22;11392;57.390;-2.468;2023-05-20T07:27:56;11.40;99.90
22450;DHT22;11392;57.390;-2.468;2023-05-20T07:30:26;11.40;99.90
22450;DHT22;11392;57.390;-2.468;2023-05-20T07:32:53;11.50;99.90
22450;DHT22;11392;57.390;-2.468;2023-05-20T07:35:21;11.50;99.90
22450;DHT22;11392;57.390;-2.468;2023-05-20T07:37:48;11.50;99.90
22450;DHT22;11392;57.390;-2.468;2023-05-20T07:40:15;11.60;99.90
22450;DHT22;11392;57.390;-2.468;2023-05-20T07:42:51;11.60;99.90
22450;DHT22;11392;57.390;-2.468;2023-05-20T07:45:19;11.60;99.90
22450;DHT22;11392;57.390;-2.468;2023-05-20T07:50:22;11.60;99.90
22450;DHT22;11392;57.390;-2.468;2023-05-20T07:52:49;11.60;99.90
22450;DHT22;11392;57.390;-2.468;2023-05-20T07:55:22;11.60;99.90
22450;DHT22;11392;57.390;-2.468;2023-05-20T07:57:50;11.60;99.90
22450;DHT22;11392;57.390;-2.468;2023-05-20T08:00:17;11.70;99.90
22450;DHT22;11392;57.390;-2.468;2023-05-20T08:02:44;11.60;99.90
22450;DHT22;11392;57.390;-2.468;2023-05-20T08:05:12;11.60;99.90
22450;DHT22;11392;57.390;-2.468;2023-05-20T08:07:39;11.60;99.90
22450;DHT22;11392;57.390;-2.468;2023-05-20T08:10:07;11.70;99.90
22450;DHT22;11392;57.390;-2.468;2023-05-20T08:12:34;11.70;99.90
22450;DHT22;11392;57.390;-2.468;2023-05-20T08:15:01;11.70;99.90
22450;DHT22;11392;57.390;-2.468;2023-05-20T08:17:28;11.70;99.90
22450;DHT22;11392;57.390;-2.468;2023-05-20T08:19:55;11.70;99.90
22450;DHT22;11392;57.390;-2.468;2023-05-20T08:22:22;11.70;99.90
22450;DHT22;11392;57.390;-2.468;2023-05-20T08:24:49;11.70;99.90
22450;DHT22;11392;57.390;-2.468;2023-05-20T08:27:16;11.80;99.90
22450;DHT22;11392;57.390;-2.468;2023-05-20T08:29:44;11.80;99.90
22450;DHT22;11392;57.390;-2.468;2023-05-20T08:32:11;11.80;99.90
22450;DHT22;11392;57.390;-2.468;2023-05-20T08:34:38;11.80;99.90
22450;DHT22;11392;57.390;-2.468;2023-05-20T08:37:05;11.80;99.90
22450;DHT22;11392;57.390;-2.468;2023-05-20T08:39:32;11.80;99.90
22450;DHT22;11392;57.390;-2.468;2023-05-20T08:41:59;11.90;99.90
22450;DHT22;11392;57.390;-2.468;2023-05-20T08:44:27;11.90;99.90
22450;DHT22;11392;57.390;-2.468;2023-05-20T08:46:55;12.00;99.90
22450;DHT22;11392;57.390;-2.468;2023-05-20T08:49:23;12.00;99.90
22450;DHT22;11392;57.390;-2.468;2023-05-20T08:51:50;12.00;99.90
22450;DHT22;11392;57.390;-2.468;2023-05-20T08:54:18;12.10;99.90
22450;DHT22;11392;57.390;-2.468;2023-05-20T08:56:47;12.10;99.90
22450;DHT22;11392;57.390;-2.468;2023-05-20T08:59:14;12.20;99.90
22450;DHT22;11392;57.390;-2.468;2023-05-20T09:01:43;12.20;99.90
22450;DHT22;11392;57.390;-2.468;2023-05-20T09:04:10;12.20;99.90
22450;DHT22;11392;57.390;-2.468;2023-05-20T09:06:43;12.30;99.90
22450;DHT22;11392;57.390;-2.468;2023-05-20T09:09:13;12.40;99.90
22450;DHT22;11392;57.390;-2.468;2023-05-20T09:11:41;12.50;99.90
22450;DHT22;11392;57.390;-2.468;2023-05-20T09:14:08;12.50;99.90
22450;DHT22;11392;57.390;-2.468;2023-05-20T09:16:36;12.60;99.90
22450;DHT22;11392;57.390;-2.468;2023-05-20T09:19:05;12.60;99.90
22450;DHT22;11392;57.390;-2.468;2023-05-20T09:21:34;12.70;99.90
22450;DHT22;11392;57.390;-2.468;2023-05-20T09:24:01;12.70;99.90
22450;DHT22;11392;57.390;-2.468;2023-05-20T09:26:28;12.70;99.90
22450;DHT22;11392;57.390;-2.468;2023-05-20T09:28:56;12.70;99.90
22450;DHT22;11392;57.390;-2.468;2023-05-20T09:31:27;12.70;99.90
22450;DHT22;11392;57.390;-2.468;2023-05-20T09:33:56;12.70;99.90
22450;DHT22;11392;57.390;-2.468;2023-05-20T09:36:28;12.80;99.90
22450;DHT22;11392;57.390;-2.468;2023-05-20T09:39:00;12.80;99.90
22450;DHT22;11392;57.390;-2.468;2023-05-20T09:41:54;12.80;99.90
22450;DHT22;11392;57.390;-2.468;2023-05-20T09:44:22;12.90;99.90
22450;DHT22;11392;57.390;-2.468;2023-05-20T09:46:50;12.90;99.90
22450;DHT22;11392;57.390;-2.468;2023-05-20T09:49:19;13.00;99.90
22450;DHT22;11392;57.390;-2.468;2023-05-20T09:51:49;13.00;99.90
22450;DHT22;11392;57.390;-2.468;2023-05-20T09:54:18;13.00;99.90
22450;DHT22;11392;57.390;-2.468;2023-05-20T09:56:46;13.10;99.90
22450;DHT22;11392;57.390;-2.468;2023-05-20T09:59:17;13.10;99.90
22450;DHT22;11392;57.390;-2.468;2023-05-20T10:01:47;13.20;99.90
22450;DHT22;11392;57.390;-2.468;2023-05-20T10:04:16;13.20;99.90
22450;DHT22;11392;57.390;-2.468;2023-05-20T10:06:49;13.20;99.90
22450;DHT22;11392;57.390;-2.468;2023-05-20T10:12:28;13.20;99.90
22450;DHT22;11392;57.390;-2.468;2023-05-20T10:15:02;13.30;99.90
22450;DHT22;11392;57.390;-2.468;2023-05-20T10:25:36;13.40;99.90
22450;DHT22;11392;57.390;-2.468;2023-05-20T10:28:07;13.40;99.90
22450;DHT22;11392;57.390;-2.468;2023-05-20T10:30:36;13.50;99.90
22450;DHT22;11392;57.390;-2.468;2023-05-20T10:38:28;13.80;99.90
22450;DHT22;11392;57.390;-2.468;2023-05-20T10:41:07;13.90;99.90
22450;DHT22;11392;57.390;-2.468;2023-05-20T10:43:34;14.00;99.90
22450;DHT22;11392;57.390;-2.468;2023-05-20T10:46:02;14.00;99.90
22450;DHT22;11392;57.390;-2.468;2023-05-20T11:02:38;14.40;99.90
22450;DHT22;11392;57.390;-2.468;2023-05-20T11:05:06;14.50;99.90
22450;DHT22;11392;57.390;-2.468;2023-05-20T11:07:37;14.60;99.90
22450;DHT22;11392;57.390;-2.468;2023-05-20T11:20:45;14.90;99.90
22450;DHT22;11392;57.390;-2.468;2023-05-20T11:23:14;14.90;99.90
22450;DHT22;11392;57.390;-2.468;2023-05-20T11:25:41;15.00;99.90
22450;DHT22;11392;57.390;-2.468;2023-05-20T11:28:14;15.10;99.90
22450;DHT22;11392;57.390;-2.468;2023-05-20T11:30:41;15.10;99.90
22450;DHT22;11392;57.390;-2.468;2023-05-20T11:33:11;15.10;99.90
22450;DHT22;11392;57.390;-2.468;2023-05-20T11:35:47;15.10;99.90
22450;DHT22;11392;57.390;-2.468;2023-05-20T11:38:16;15.10;99.90
22450;DHT22;11392;57.390;-2.468;2023-05-20T11:40:45;15.20;99.90
22450;DHT22;11392;57.390;-2.468;2023-05-20T11:43:17;15.20;99.90
22450;DHT22;11392;57.390;-2.468;2023-05-20T11:45:47;15.30;99.90
22450;DHT22;11392;57.390;-2.468;2023-05-20T11:48:18;15.30;99.90
22450;DHT22;11392;57.390;-2.468;2023-05-20T11:50:46;15.40;99.90
22450;DHT22;11392;57.390;-2.468;2023-05-20T11:53:16;15.40;99.90
22450;DHT22;11392;57.390;-2.468;2023-05-20T11:56:03;15.40;99.90
22450;DHT22;11392;57.390;-2.468;2023-05-20T11:58:31;15.40;99.90
22450;DHT22;11392;57.390;-2.468;2023-05-20T12:00:58;15.40;99.90
22450;DHT22;11392;57.390;-2.468;2023-05-20T12:03:45;15.50;99.90
22450;DHT22;11392;57.390;-2.468;2023-05-20T12:06:13;15.60;99.90
22450;DHT22;11392;57.390;-2.468;2023-05-20T12:11:15;15.70;99.90
22450;DHT22;11392;57.390;-2.468;2023-05-20T12:13:44;15.80;99.90
22450;DHT22;11392;57.390;-2.468;2023-05-20T12:16:11;15.90;99.90
22450;DHT22;11392;57.390;-2.468;2023-05-20T12:18:38;15.90;99.90
22450;DHT22;11392;57.390;-2.468;2023-05-20T12:21:05;15.90;99.90
22450;DHT22;11392;57.390;-2.468;2023-05-20T12:23:32;16.00;99.90
22450;DHT22;11392;57.390;-2.468;2023-05-20T12:26:00;16.10;99.90
22450;DHT22;11392;57.390;-2.468;2023-05-20T12:28:27;16.10;99.90
22450;DHT22;11392;57.390;-2.468;2023-05-20T12:30:54;16.20;99.90
22450;DHT22;11392;57.390;-2.468;2023-05-20T12:33:21;16.20;99.90
22450;DHT22;11392;57.390;-2.468;2023-05-20T12:35:48;16.30;99.90
22450;DHT22;11392;57.390;-2.468;2023-05-20T12:49:25;16.40;99.90
22450;DHT22;11392;57.390;-2.468;2023-05-20T12:54:27;16.50;99.90
22450;DHT22;11392;57.390;-2.468;2023-05-20T13:40:03;17.10;99.90
22450;DHT22;11392;57.390;-2.468;2023-05-20T13:42:30;17.10;99.90
22450;DHT22;11392;57.390;-2.468;2023-05-20T13:44:57;17.20;99.90
22450;DHT22;11392;57.390;-2.468;2023-05-20T13:47:24;17.10;99.90
22450;DHT22;11392;57.390;-2.468;2023-05-20T13:49:51;17.10;99.90
22450;DHT22;11392;57.390;-2.468;2023-05-20T13:52:18;17.20;99.90
22450;DHT22;11392;57.390;-2.468;2023-05-20T13:54:45;17.10;99.90
22450;DHT22;11392;57.390;-2.468;2023-05-20T13:57:14;17.10;99.90
22450;DHT22;11392;57.390;-2.468;2023-05-20T13:59:41;17.10;99.90
22450;DHT22;11392;57.390;-2.468;2023-05-20T14:04:51;17.20;99.90
22450;DHT22;11392;57.390;-2.468;2023-05-20T14:07:44;17.30;99.90
22450;DHT22;11392;57.390;-2.468;2023-05-20T14:24:40;17.20;99.90
22450;DHT22;11392;57.390;-2.468;2023-05-20T14:35:59;17.60;99.90
22450;DHT22;11392;57.390;-2.468;2023-05-20T14:38:27;17.50;99.90
22450;DHT22;11392;57.390;-2.468;2023-05-20T15:07:20;17.40;99.90
22450;DHT22;11392;57.390;-2.468;2023-05-20T15:15:20;17.30;99.90
22450;DHT22;11392;57.390;-2.468;2023-05-20T15:20:49;17.40;99.90
22450;DHT22;11392;57.390;-2.468;2023-05-20T15:23:16;17.20;99.90
22450;DHT22;11392;57.390;-2.468;2023-05-20T15:25:44;17.20;99.90
22450;DHT22;11392;57.390;-2.468;2023-05-20T15:28:11;17.20;99.90
22450;DHT22;11392;57.390;-2.468;2023-05-20T15:30:39;17.10;99.90
22450;DHT22;11392;57.390;-2.468;2023-05-20T15:33:06;17.10;99.90
22450;DHT22;11392;57.390;-2.468;2023-05-20T15:43:32;16.80;99.90
22450;DHT22;11392;57.390;-2.468;2023-05-20T15:46:00;16.70;99.90
22450;DHT22;11392;57.390;-2.468;2023-05-20T15:48:27;16.60;99.90
22450;DHT22;11392;57.390;-2.468;2023-05-20T15:50:54;16.50;99.90
22450;DHT22;11392;57.390;-2.468;2023-05-20T15:53:21;16.60;99.90
22450;DHT22;11392;57.390;-2.468;2023-05-20T16:28:14;15.50;99.90
22450;DHT22;11392;57.390;-2.468;2023-05-20T16:36:33;15.40;99.90
22450;DHT22;11392;57.390;-2.468;2023-05-20T16:39:00;15.40;99.90
22450;DHT22;11392;57.390;-2.468;2023-05-20T16:41:27;15.30;99.90
22450;DHT22;11392;57.390;-2.468;2023-05-20T16:43:54;15.30;99.90
22450;DHT22;11392;57.390;-2.468;2023-05-20T16:46:22;15.30;99.90
22450;DHT22;11392;57.390;-2.468;2023-05-20T16:48:49;15.10;99.90
22450;DHT22;11392;57.390;-2.468;2023-05-20T16:51:16;15.20;99.90
22450;DHT22;11392;57.390;-2.468;2023-05-20T16:53:43;15.20;99.90
22450;DHT22;11392;57.390;-2.468;2023-05-20T16:56:10;15.10;99.90
22450;DHT22;11392;57.390;-2.468;2023-05-20T16:58:38;15.00;99.90
22450;DHT22;11392;57.390;-2.468;2023-05-20T17:01:05;14.90;99.90
22450;DHT22;11392;57.390;-2.468;2023-05-20T17:03:34;14.90;99.90
22450;DHT22;11392;57.390;-2.468;2023-05-20T17:06:01;14.90;99.90
22450;DHT22;11392;57.390;-2.468;2023-05-20T17:08:28;14.80;99.90
22450;DHT22;11392;57.390;-2.468;2023-05-20T17:10:55;14.70;99.90
22450;DHT22;11392;57.390;-2.468;2023-05-20T17:13:24;14.70;99.90
22450;DHT22;11392;57.390;-2.468;2023-05-20T17:15:51;14.60;99.90
22450;DHT22;11392;57.390;-2.468;2023-05-20T17:18:18;14.60;99.90
22450;DHT22;11392;57.390;-2.468;2023-05-20T17:20:45;14.50;99.90
22450;DHT22;11392;57.390;-2.468;2023-05-20T17:23:12;14.50;99.90
22450;DHT22;11392;57.390;-2.468;2023-05-20T17:25:40;14.40;99.90
22450;DHT22;11392;57.390;-2.468;2023-05-20T17:28:07;14.40;99.90
22450;DHT22;11392;57.390;-2.468;2023-05-20T17:30:34;14.40;99.90
22450;DHT22;11392;57.390;-2.468;2023-05-20T17:33:02;14.40;99.90
22450;DHT22;11392;57.390;-2.468;2023-05-20T17:35:29;14.40;99.90
22450;DHT22;11392;57.390;-2.468;2023-05-20T17:37:58;14.40;99.90
22450;DHT22;11392;57.390;-2.468;2023-05-20T17:40:25;14.40;99.90
22450;DHT22;11392;57.390;-2.468;2023-05-20T17:42:52;14.30;99.90
22450;DHT22;11392;57.390;-2.468;2023-05-20T17:45:19;14.30;99.90
22450;DHT22;11392;57.390;-2.468;2023-05-20T17:47:46;14.20;99.90
22450;DHT22;11392;57.390;-2.468;2023-05-20T17:50:14;14.20;99.90
22450;DHT22;11392;57.390;-2.468;2023-05-20T17:52:42;14.20;99.90
22450;DHT22;11392;57.390;-2.468;2023-05-20T17:55:09;14.10;99.90
22450;DHT22;11392;57.390;-2.468;2023-05-20T17:57:36;14.00;99.90
22450;DHT22;11392;57.390;-2.468;2023-05-20T18:00:04;14.00;99.90
22450;DHT22;11392;57.390;-2.468;2023-05-20T18:02:32;14.00;99.90
22450;DHT22;11392;57.390;-2.468;2023-05-20T18:04:59;13.90;99.90
22450;DHT22;11392;57.390;-2.468;2023-05-20T18:07:27;13.90;99.90
22450;DHT22;11392;57.390;-2.468;2023-05-20T18:09:56;13.90;99.90
22450;DHT22;11392;57.390;-2.468;2023-05-20T18:12:23;13.90;99.90
22450;DHT22;11392;57.390;-2.468;2023-05-20T18:14:50;13.80;99.90
22450;DHT22;11392;57.390;-2.468;2023-05-20T18:17:17;13.80;99.90
22450;DHT22;11392;57.390;-2.468;2023-05-20T18:19:44;13.80;99.90
22450;DHT22;11392;57.390;-2.468;2023-05-20T18:22:11;13.80;99.90
22450;DHT22;11392;57.390;-2.468;2023-05-20T18:24:39;13.80;99.90
22450;DHT22;11392;57.390;-2.468;2023-05-20T18:27:06;13.70;99.90
22450;DHT22;11392;57.390;-2.468;2023-05-20T18:29:33;13.70;99.90
22450;DHT22;11392;57.390;-2.468;2023-05-20T18:32:00;13.70;99.90
22450;DHT22;11392;57.390;-2.468;2023-05-20T18:34:27;13.70;99.90
22450;DHT22;11392;57.390;-2.468;2023-05-20T18:36:54;13.70;99.90
22450;DHT22;11392;57.390;-2.468;2023-05-20T18:39:21;13.70;99.90
22450;DHT22;11392;57.390;-2.468;2023-05-20T18:41:48;13.70;99.90
22450;DHT22;11392;57.390;-2.468;2023-05-20T18:44:17;13.60;99.90
22450;DHT22;11392;57.390;-2.468;2023-05-20T18:46:44;13.60;99.90
22450;DHT22;11392;57.390;-2.468;2023-05-20T18:49:12;13.50;99.90
22450;DHT22;11392;57.390;-2.468;2023-05-20T18:51:39;13.50;99.90
22450;DHT22;11392;57.390;-2.468;2023-05-20T18:54:07;13.50;99.90
22450;DHT22;11392;57.390;-2.468;2023-05-20T18:56:34;13.40;99.90
22450;DHT22;11392;57.390;-2.468;2023-05-20T18:59:02;13.40;99.90
22450;DHT22;11392;57.390;-2.468;2023-05-20T19:01:29;13.30;99.90
22450;DHT22;11392;57.390;-2.468;2023-05-20T19:03:57;13.40;99.90
22450;DHT22;11392;57.390;-2.468;2023-05-20T19:06:24;13.30;99.90
22450;DHT22;11392;57.390;-2.468;2023-05-20T19:08:51;13.30;99.90
22450;DHT22;11392;57.390;-2.468;2023-05-20T19:11:18;13.30;99.90
22450;DHT22;11392;57.390;-2.468;2023-05-20T19:13:45;13.30;99.90
22450;DHT22;11392;57.390;-2.468;2023-05-20T19:16:13;13.30;99.90
22450;DHT22;11392;57.390;-2.468;2023-05-20T19:18:40;13.30;99.90
22450;DHT22;11392;57.390;-2.468;2023-05-20T19:21:07;13.30;99.90
22450;DHT22;11392;57.390;-2.468;2023-05-20T19:23:34;13.30;99.90
22450;DHT22;11392;57.390;-2.468;2023-05-20T19:26:01;13.30;99.90
22450;DHT22;11392;57.390;-2.468;2023-05-20T19:28:29;13.20;99.90
22450;DHT22;11392;57.390;-2.468;2023-05-20T19:30:56;13.20;99.90
22450;DHT22;11392;57.390;-2.468;2023-05-20T19:33:23;13.20;99.90
22450;DHT22;11392;57.390;-2.468;2023-05-20T19:35:51;13.20;99.90
22450;DHT22;11392;57.390;-2.468;2023-05-20T19:38:18;13.20;99.90
22450;DHT22;11392;57.390;-2.468;2023-05-20T19:40:45;13.20;99.90
22450;DHT22;11392;57.390;-2.468;2023-05-20T19:43:13;13.20;99.90
22450;DHT22;11392;57.390;-2.468;2023-05-20T19:45:40;13.10;99.90
22450;DHT22;11392;57.390;-2.468;2023-05-20T19:48:07;13.10;99.90
22450;DHT22;11392;57.390;-2.468;2023-05-20T19:50:35;13.10;99.90
22450;DHT22;11392;57.390;-2.468;2023-05-20T19:53:03;13.10;99.90
22450;DHT22;11392;57.390;-2.468;2023-05-20T19:55:33;13.10;99.90
22450;DHT22;11392;57.390;-2.468;2023-05-20T20:00:44;13.10;99.90
22450;DHT22;11392;57.390;-2.468;2023-05-20T20:03:11;13.10;99.90
22450;DHT22;11392;57.390;-2.468;2023-05-20T20:05:38;13.00;99.90
22450;DHT22;11392;57.390;-2.468;2023-05-20T20:10:47;13.00;99.90
22450;DHT22;11392;57.390;-2.468;2023-05-20T20:13:14;13.00;99.90
22450;DHT22;11392;57.390;-2.468;2023-05-20T20:18:17;12.90;99.90
22450;DHT22;11392;57.390;-2.468;2023-05-20T20:20:45;12.90;99.90
22450;DHT22;11392;57.390;-2.468;2023-05-20T20:23:12;12.90;99.90
22450;DHT22;11392;57.390;-2.468;2023-05-20T20:25:39;12.90;99.90
22450;DHT22;11392;57.390;-2.468;2023-05-20T20:28:08;12.90;99.90
22450;DHT22;11392;57.390;-2.468;2023-05-20T20:30:35;12.90;99.90
22450;DHT22;11392;57.390;-2.468;2023-05-20T20:33:03;12.90;99.90
22450;DHT22;11392;57.390;-2.468;2023-05-20T20:35:35;12.80;99.90
22450;DHT22;11392;57.390;-2.468;2023-05-20T20:40:39;12.80;99.90
22450;DHT22;11392;57.390;-2.468;2023-05-20T20:45:46;12.80;99.90
22450;DHT22;11392;57.390;-2.468;2023-05-20T20:48:13;12.80;99.90
22450;DHT22;11392;57.390;-2.468;2023-05-20T20:50:53;12.80;99.90
22450;DHT22;11392;57.390;-2.468;2023-05-20T20:55:55;12.80;99.90
22450;DHT22;11392;57.390;-2.468;2023-05-20T20:58:22;12.80;99.90
22450;DHT22;11392;57.390;-2.468;2023-05-20T21:00:50;12.70;99.90
22450;DHT22;11392;57.390;-2.468;2023-05-20T21:03:19;12.70;99.90
22450;DHT22;11392;57.390;-2.468;2023-05-20T21:05:49;12.80;99.90
22450;DHT22;11392;57.390;-2.468;2023-05-20T21:08:17;12.70;99.90
22450;DHT22;11392;57.390;-2.468;2023-05-20T21:18:53;12.70;99.90
22450;DHT22;11392;57.390;-2.468;2023-05-20T21:21:20;12.60;99.90
22450;DHT22;11392;57.390;-2.468;2023-05-20T21:23:47;12.60;99.90
22450;DHT22;11392;57.390;-2.468;2023-05-20T21:26:16;12.60;99.90
22450;DHT22;11392;57.390;-2.468;2023-05-20T21:28:44;12.60;99.90
22450;DHT22;11392;57.390;-2.468;2023-05-20T21:31:11;12.60;99.90
22450;DHT22;11392;57.390;-2.468;2023-05-20T21:33:38;12.60;99.90
22450;DHT22;11392;57.390;-2.468;2023-05-20T21:36:05;12.50;99.90
22450;DHT22;11392;57.390;-2.468;2023-05-20T21:38:32;12.50;99.90
22450;DHT22;11392;57.390;-2.468;2023-05-20T21:43:42;12.50;99.90
22450;DHT22;11392;57.390;-2.468;2023-05-20T21:46:09;12.50;99.90
22450;DHT22;11392;57.390;-2.468;2023-05-20T21:48:36;12.40;99.90
22450;DHT22;11392;57.390;-2.468;2023-05-20T21:53:55;12.40;99.90
22450;DHT22;11392;57.390;-2.468;2023-05-20T21:56:22;12.50;99.90
22450;DHT22;11392;57.390;-2.468;2023-05-20T22:01:24;12.50;99.90
22450;DHT22;11392;57.390;-2.468;2023-05-20T22:03:52;12.50;99.90
22450;DHT22;11392;57.390;-2.468;2023-05-20T22:06:19;12.50;99.90
22450;DHT22;11392;57.390;-2.468;2023-05-20T22:08:47;12.50;99.90
22450;DHT22;11392;57.390;-2.468;2023-05-20T22:11:14;12.60;99.90
22450;DHT22;11392;57.390;-2.468;2023-05-20T22:13:41;12.60;99.90
22450;DHT22;11392;57.390;-2.468;2023-05-20T22:16:08;12.60;99.90
22450;DHT22;11392;57.390;-2.468;2023-05-20T22:18:37;12.60;99.90
22450;DHT22;11392;57.390;-2.468;2023-05-20T22:21:04;12.60;99.90
22450;DHT22;11392;57.390;-2.468;2023-05-20T22:23:32;12.60;99.90
22450;DHT22;11392;57.390;-2.468;2023-05-20T22:26:00;12.60;99.90
22450;DHT22;11392;57.390;-2.468;2023-05-20T22:28:27;12.60;99.90
22450;DHT22;11392;57.390;-2.468;2023-05-20T22:30:55;12.50;99.90
22450;DHT22;11392;57.390;-2.468;2023-05-20T22:35:59;12.50;99.90
22450;DHT22;11392;57.390;-2.468;2023-05-20T22:44:11;12.50;99.90
22450;DHT22;11392;57.390;-2.468;2023-05-20T22:49:20;12.50;99.90
22450;DHT22;11392;57.390;-2.468;2023-05-20T22:51:49;12.50;99.90
22450;DHT22;11392;57.390;-2.468;2023-05-20T22:54:18;12.50;99.90
22450;DHT22;11392;57.390;-2.468;2023-05-20T23:05:12;12.50;99.90
22450;DHT22;11392;57.390;-2.468;2023-05-20T23:07:40;12.50;99.90
22450;DHT22;11392;57.390;-2.468;2023-05-20T23:10:07;12.50;99.90
22450;DHT22;11392;57.390;-2.468;2023-05-20T23:12:34;12.40;99.90
22450;DHT22;11392;57.390;-2.468;2023-05-20T23:24:02;12.50;99.90
22450;DHT22;11392;57.390;-2.468;2023-05-20T23:29:26;12.50;99.90
22450;DHT22;11392;57.390;-2.468;2023-05-20T23:31:53;12.50;99.90
22450;DHT22;11392;57.390;-2.468;2023-05-20T23:34:20;12.50;99.90
22450;DHT22;11392;57.390;-2.468;2023-05-20T23:39:29;12.50;99.90
22450;DHT22;11392;57.390;-2.468;2023-05-20T23:41:56;12.50;99.90
22450;DHT22;11392;57.390;-2.468;2023-05-20T23:44:23;12.50;99.90
22450;DHT22;11392;57.390;-2.468;2023-05-20T23:46:50;12.50;99.90
22450;DHT22;11392;57.390;-2.468;2023-05-20T23:49:17;12.50;99.90
22450;DHT22;11392;57.390;-2.468;2023-05-20T23:51:50;12.50;99.90
22450;DHT22;11392;57.390;-2.468;2023-05-20T23:56:45;12.50;99.90
